Time;durP1;ratioP1;P1;durP2;ratioP2;P2;SDS_P1;SDS_P2;PMS_P1;PMS_P2;Temp;Humidity;BMP_temperature;BMP_pressure;BME280_temperature;BME280_humidity;BME280_pressure;Samples;Min_cycle;Max_cycle;Signal;HPM_P1;HPM_P2
2021/12/27 00:00:48;;;;;;;;;;;5.80;58.70;;;;;;6186017;23;19911;-90
2021/12/27 00:03:14;;;;;;;;;;;5.80;58.80;;;;;;6188083;23;19979;-90
2021/12/27 00:05:40;;;;;;;;;;;5.80;58.80;;;;;;6187077;23;19944;-89
2021/12/27 00:08:05;;;;;;;;;;;5.80;58.90;;;;;;6184285;23;20481;-90
2021/12/27 00:10:31;;;;;;;;;;;5.80;59.00;;;;;;6159986;23;19994;-89
2021/12/27 00:12:57;;;;;;;;;;;5.80;59.10;;;;;;6185266;23;19904;-91
2021/12/27 00:15:23;;;;;;;;;;;5.80;59.20;;;;;;6186737;23;20312;-91
2021/12/27 00:17:48;;;;;;;;;;;5.80;59.20;;;;;;6187903;23;19904;-90
2021/12/27 00:20:15;;;;;;;;;;;5.90;59.30;;;;;;6189552;23;19919;-90
2021/12/27 00:22:41;;;;;;;;;;;6.00;59.40;;;;;;6187069;23;19912;-91
2021/12/27 00:25:07;;;;;;;;;;;6.10;59.60;;;;;;6186166;23;19919;-91
2021/12/27 00:27:33;;;;;;;;;;;6.20;59.60;;;;;;6184152;23;19913;-89
2021/12/27 00:29:58;;;;;;;;;;;6.30;59.50;;;;;;6187040;23;19919;-90
2021/12/27 00:32:24;;;;;;;;;;;6.40;59.40;;;;;;6186950;23;19912;-90
2021/12/27 00:34:49;;;;;;;;;;;6.50;59.40;;;;;;6187886;23;19961;-90
2021/12/27 00:37:15;;;;;;;;;;;6.60;59.30;;;;;;6184757;23;19916;-90
2021/12/27 00:39:41;;;;;;;;;;;6.70;59.10;;;;;;6185369;23;19920;-90
2021/12/27 00:42:07;;;;;;;;;;;6.70;59.00;;;;;;6185140;23;19905;-90
2021/12/27 00:44:32;;;;;;;;;;;6.70;58.90;;;;;;6187430;23;19974;-90
2021/12/27 00:46:58;;;;;;;;;;;6.80;58.80;;;;;;6188481;23;19919;-90
2021/12/27 00:49:24;;;;;;;;;;;6.80;58.70;;;;;;6189136;23;19908;-90
2021/12/27 00:51:50;;;;;;;;;;;6.90;58.70;;;;;;6191149;23;19912;-91
2021/12/27 00:54:15;;;;;;;;;;;6.90;58.50;;;;;;6189236;23;19916;-90
2021/12/27 00:56:42;;;;;;;;;;;6.90;58.50;;;;;;6187809;23;19905;-90
2021/12/27 00:59:08;;;;;;;;;;;7.00;58.60;;;;;;6187471;23;19920;-90
2021/12/27 01:01:33;;;;;;;;;;;7.00;58.50;;;;;;6185772;23;19987;-90
2021/12/27 01:03:59;;;;;;;;;;;7.00;58.40;;;;;;6163690;23;19916;-90
2021/12/27 01:06:25;;;;;;;;;;;7.00;58.30;;;;;;6189552;23;19924;-90
2021/12/27 01:08:50;;;;;;;;;;;7.00;58.40;;;;;;6190138;23;20002;-90
2021/12/27 01:14:00;;;;;;;;;;;7.00;58.50;;;;;;6196957;23;19905;-89
2021/12/27 01:16:25;;;;;;;;;;;7.00;58.30;;;;;;6186644;23;19916;-90
2021/12/27 01:18:51;;;;;;;;;;;7.00;58.40;;;;;;6185979;23;20344;-90
2021/12/27 01:21:18;;;;;;;;;;;7.00;58.30;;;;;;6187084;23;19916;-90
2021/12/27 01:23:44;;;;;;;;;;;6.90;58.30;;;;;;6187905;23;19904;-90
2021/12/27 01:26:10;;;;;;;;;;;6.80;58.30;;;;;;6162990;23;19920;-91
2021/12/27 01:28:36;;;;;;;;;;;6.80;58.20;;;;;;6188352;23;19915;-90
2021/12/27 01:31:01;;;;;;;;;;;6.70;58.30;;;;;;6185791;23;19912;-89
2021/12/27 01:33:27;;;;;;;;;;;6.70;58.40;;;;;;6186804;23;20397;-90
2021/12/27 01:35:54;;;;;;;;;;;6.70;58.40;;;;;;6188523;23;19916;-90
2021/12/27 01:38:19;;;;;;;;;;;6.60;58.50;;;;;;6187420;23;19916;-89
2021/12/27 01:40:46;;;;;;;;;;;6.60;58.60;;;;;;6187993;23;19924;-90
2021/12/27 01:43:13;;;;;;;;;;;6.60;58.70;;;;;;6187860;23;20317;-90
2021/12/27 01:45:40;;;;;;;;;;;6.50;58.90;;;;;;6188449;23;20436;-90
2021/12/27 01:48:07;;;;;;;;;;;6.60;59.00;;;;;;6188613;23;19919;-90
2021/12/27 01:50:37;;;;;;;;;;;6.70;59.10;;;;;;6187126;23;19952;-90
2021/12/27 01:53:02;;;;;;;;;;;6.70;59.10;;;;;;6183774;23;20407;-90
2021/12/27 01:55:28;;;;;;;;;;;6.80;59.10;;;;;;6185852;23;19904;-89
2021/12/27 01:57:53;;;;;;;;;;;6.90;59.00;;;;;;6185968;23;19908;-90
2021/12/27 02:00:19;;;;;;;;;;;6.90;59.00;;;;;;6187648;23;19963;-90
2021/12/27 02:02:45;;;;;;;;;;;7.00;58.90;;;;;;6187900;23;19916;-90
2021/12/27 02:05:12;;;;;;;;;;;7.10;58.90;;;;;;6187263;23;20445;-90
2021/12/27 02:07:37;;;;;;;;;;;7.10;58.80;;;;;;6184315;23;20330;-89
2021/12/27 02:10:03;;;;;;;;;;;7.20;58.80;;;;;;6184367;23;19956;-90
2021/12/27 02:12:30;;;;;;;;;;;7.30;58.70;;;;;;6183450;23;19908;-90
2021/12/27 02:14:55;;;;;;;;;;;7.30;58.70;;;;;;6183262;23;20339;-89
2021/12/27 02:17:21;;;;;;;;;;;7.30;58.70;;;;;;6186355;23;19935;-90
2021/12/27 02:19:47;;;;;;;;;;;7.40;58.60;;;;;;6188530;23;19913;-90
2021/12/27 02:22:12;;;;;;;;;;;7.40;58.40;;;;;;6186763;23;19909;-89
2021/12/27 02:24:40;;;;;;;;;;;7.50;58.40;;;;;;6185070;23;19916;-89
2021/12/27 02:27:06;;;;;;;;;;;7.50;58.30;;;;;;6183229;23;19931;-90
2021/12/27 02:29:33;;;;;;;;;;;7.50;58.40;;;;;;6184588;23;19920;-89
2021/12/27 02:31:59;;;;;;;;;;;7.60;58.30;;;;;;6185350;23;19999;-89
2021/12/27 02:34:24;;;;;;;;;;;7.60;58.30;;;;;;6186395;23;19940;-90
2021/12/27 02:36:50;;;;;;;;;;;7.70;58.30;;;;;;6188211;23;19935;-90
2021/12/27 02:39:16;;;;;;;;;;;7.70;58.40;;;;;;6185822;23;19924;-90
2021/12/27 02:41:41;;;;;;;;;;;7.70;58.20;;;;;;6186677;23;19904;-89
2021/12/27 02:44:07;;;;;;;;;;;7.70;58.20;;;;;;6158832;23;19931;-90
2021/12/27 02:46:34;;;;;;;;;;;7.80;58.20;;;;;;6185907;23;19935;-89
2021/12/27 02:48:59;;;;;;;;;;;7.80;58.20;;;;;;6185829;23;20290;-90
2021/12/27 02:51:25;;;;;;;;;;;7.80;58.10;;;;;;6158092;23;19939;-90
2021/12/27 02:53:50;;;;;;;;;;;7.80;58.10;;;;;;6185311;23;19904;-90
2021/12/27 02:56:17;;;;;;;;;;;7.80;58.10;;;;;;6184187;23;19958;-90
2021/12/27 02:58:43;;;;;;;;;;;7.80;58.10;;;;;;6184253;23;19927;-89
2021/12/27 03:01:08;;;;;;;;;;;7.80;58.10;;;;;;6186061;23;19916;-88
2021/12/27 03:03:34;;;;;;;;;;;7.80;58.30;;;;;;6158414;23;19936;-88
2021/12/27 03:06:00;;;;;;;;;;;7.80;58.30;;;;;;6184616;23;20113;-90
2021/12/27 03:08:26;;;;;;;;;;;7.80;58.40;;;;;;6157457;23;19946;-89
2021/12/27 03:10:53;;;;;;;;;;;7.80;58.50;;;;;;6182244;23;20325;-90
2021/12/27 03:13:20;;;;;;;;;;;7.80;58.60;;;;;;6184690;23;19935;-89
2021/12/27 03:15:45;;;;;;;;;;;7.80;58.60;;;;;;6187092;23;19913;-89
2021/12/27 03:18:12;;;;;;;;;;;7.80;58.70;;;;;;6160402;23;19919;-90
2021/12/27 03:20:37;;;;;;;;;;;7.80;58.80;;;;;;6181857;23;20101;-89
2021/12/27 03:23:03;;;;;;;;;;;7.80;59.00;;;;;;6181758;23;19915;-90
2021/12/27 03:25:28;;;;;;;;;;;7.80;58.90;;;;;;6182541;23;19908;-89
2021/12/27 03:27:54;;;;;;;;;;;7.70;59.20;;;;;;6184103;23;20398;-90
2021/12/27 03:30:21;;;;;;;;;;;7.70;59.30;;;;;;6185337;23;19904;-90
2021/12/27 03:32:47;;;;;;;;;;;7.70;59.40;;;;;;6160844;23;20229;-89
2021/12/27 03:35:15;;;;;;;;;;;7.70;59.40;;;;;;6185118;23;19928;-89
2021/12/27 03:37:42;;;;;;;;;;;7.70;59.40;;;;;;6186398;23;19904;-90
2021/12/27 03:40:09;;;;;;;;;;;7.70;59.50;;;;;;6184265;23;19912;-90
2021/12/27 03:42:34;;;;;;;;;;;7.70;59.50;;;;;;6182392;23;19923;-90
2021/12/27 03:45:00;;;;;;;;;;;7.70;59.50;;;;;;6182688;23;19991;-90
2021/12/27 03:47:26;;;;;;;;;;;7.70;59.60;;;;;;6158251;23;19909;-91
2021/12/27 03:49:51;;;;;;;;;;;7.70;59.70;;;;;;6184959;23;19909;-90
2021/12/27 03:52:17;;;;;;;;;;;7.80;59.60;;;;;;6187089;23;19936;-89
2021/12/27 03:54:42;;;;;;;;;;;7.80;59.50;;;;;;6185729;23;19908;-89
2021/12/27 03:57:08;;;;;;;;;;;7.70;59.50;;;;;;6158030;23;19999;-89
2021/12/27 04:02:02;;;;;;;;;;;7.70;59.60;;;;;;6183917;23;19912;-89
2021/12/27 04:04:28;;;;;;;;;;;7.70;59.50;;;;;;6181922;23;19928;-90
2021/12/27 04:06:53;;;;;;;;;;;7.70;59.50;;;;;;6157754;23;19912;-89
2021/12/27 04:09:19;;;;;;;;;;;7.70;59.40;;;;;;6186788;23;19971;-90
2021/12/27 04:11:45;;;;;;;;;;;7.70;59.40;;;;;;6185116;23;19904;-89
2021/12/27 04:14:10;;;;;;;;;;;7.70;59.50;;;;;;6159089;23;19908;-90
2021/12/27 04:16:36;;;;;;;;;;;7.80;59.60;;;;;;6184248;23;19912;-89
2021/12/27 04:19:01;;;;;;;;;;;7.80;59.40;;;;;;6183500;23;19916;-90
2021/12/27 04:21:27;;;;;;;;;;;7.80;59.40;;;;;;6185161;23;20320;-90
2021/12/27 04:23:52;;;;;;;;;;;7.80;59.40;;;;;;6184596;23;19919;-89
2021/12/27 04:26:19;;;;;;;;;;;7.80;59.40;;;;;;6162442;23;19908;-90
2021/12/27 04:28:44;;;;;;;;;;;7.90;59.30;;;;;;6186858;23;19912;-90
2021/12/27 04:31:10;;;;;;;;;;;7.80;59.20;;;;;;6188664;23;19912;-90
2021/12/27 04:33:35;;;;;;;;;;;7.90;59.30;;;;;;6185537;23;19912;-90
2021/12/27 04:36:01;;;;;;;;;;;7.90;59.20;;;;;;6185420;23;19919;-90
2021/12/27 04:38:26;;;;;;;;;;;7.90;59.20;;;;;;6183417;23;19916;-90
2021/12/27 04:40:52;;;;;;;;;;;8.00;59.20;;;;;;6184787;23;20296;-91
2021/12/27 04:43:19;;;;;;;;;;;8.00;59.10;;;;;;6186143;23;19947;-90
2021/12/27 04:45:45;;;;;;;;;;;8.00;59.10;;;;;;6188271;23;20332;-90
2021/12/27 04:48:11;;;;;;;;;;;8.00;59.20;;;;;;6186778;23;19939;-90
2021/12/27 04:50:36;;;;;;;;;;;8.00;59.20;;;;;;6187617;23;19924;-90
2021/12/27 04:53:02;;;;;;;;;;;8.10;59.20;;;;;;6182898;23;20358;-91
2021/12/27 04:55:29;;;;;;;;;;;8.10;59.10;;;;;;6185845;23;19919;-90
2021/12/27 04:57:55;;;;;;;;;;;8.10;59.00;;;;;;6184673;23;19908;-90
2021/12/27 05:00:20;;;;;;;;;;;8.10;58.90;;;;;;6184926;23;19912;-90
2021/12/27 05:02:46;;;;;;;;;;;8.20;59.00;;;;;;6184516;23;20003;-90
2021/12/27 05:05:11;;;;;;;;;;;8.20;59.00;;;;;;6186797;23;19912;-91
2021/12/27 05:07:37;;;;;;;;;;;8.20;59.00;;;;;;6187105;23;19908;-91
2021/12/27 05:10:03;;;;;;;;;;;8.20;59.00;;;;;;6186238;23;19943;-91
2021/12/27 05:12:29;;;;;;;;;;;8.20;58.90;;;;;;6158384;23;19943;-91
2021/12/27 05:14:54;;;;;;;;;;;8.20;58.90;;;;;;6184130;23;20057;-91
2021/12/27 05:17:20;;;;;;;;;;;8.20;58.90;;;;;;6185508;23;20320;-91
2021/12/27 05:19:45;;;;;;;;;;;8.20;58.90;;;;;;6183228;23;19940;-90
2021/12/27 05:22:10;;;;;;;;;;;8.20;58.90;;;;;;6184847;23;19999;-90
2021/12/27 05:24:36;;;;;;;;;;;8.20;58.90;;;;;;6187183;23;19908;-90
2021/12/27 05:27:02;;;;;;;;;;;8.20;59.00;;;;;;6186072;23;19912;-90
2021/12/27 05:29:28;;;;;;;;;;;8.20;58.80;;;;;;6159220;23;19912;-91
2021/12/27 05:31:57;;;;;;;;;;;8.20;58.80;;;;;;6158735;23;19912;-91
2021/12/27 05:34:23;;;;;;;;;;;8.30;58.90;;;;;;6183605;23;19912;-90
2021/12/27 05:36:48;;;;;;;;;;;8.30;58.80;;;;;;6157367;23;20321;-92
2021/12/27 05:39:16;;;;;;;;;;;8.30;58.90;;;;;;6183351;23;19979;-90
2021/12/27 05:41:42;;;;;;;;;;;8.40;58.70;;;;;;6159823;23;19913;-90
2021/12/27 05:44:08;;;;;;;;;;;8.40;58.70;;;;;;6184820;23;19912;-91
2021/12/27 05:46:34;;;;;;;;;;;8.40;58.60;;;;;;6184328;23;20222;-90
2021/12/27 05:48:59;;;;;;;;;;;8.30;58.60;;;;;;6157815;23;19912;-90
2021/12/27 05:51:25;;;;;;;;;;;8.30;58.70;;;;;;6185150;23;19916;-90
2021/12/27 05:53:50;;;;;;;;;;;8.30;58.60;;;;;;6159763;23;19932;-90
2021/12/27 05:56:16;;;;;;;;;;;8.30;58.70;;;;;;6147139;23;20321;-90
2021/12/27 05:58:41;;;;;;;;;;;8.40;58.80;;;;;;6184828;23;19999;-91
2021/12/27 06:01:07;;;;;;;;;;;8.40;58.70;;;;;;6157613;23;20233;-91
2021/12/27 06:03:32;;;;;;;;;;;8.40;58.50;;;;;;6157557;23;19995;-91
2021/12/27 06:05:58;;;;;;;;;;;8.40;58.60;;;;;;6157254;23;20291;-90
2021/12/27 06:08:23;;;;;;;;;;;8.40;58.60;;;;;;6181937;23;19913;-90
2021/12/27 06:10:49;;;;;;;;;;;8.40;58.70;;;;;;6160092;23;19909;-90
2021/12/27 06:13:14;;;;;;;;;;;8.40;58.70;;;;;;6184828;23;20356;-91
2021/12/27 06:15:40;;;;;;;;;;;8.40;58.60;;;;;;6159454;23;19936;-90
2021/12/27 06:18:05;;;;;;;;;;;8.40;58.50;;;;;;6182724;23;20210;-90
2021/12/27 06:20:31;;;;;;;;;;;8.50;58.50;;;;;;6182012;23;20015;-90
2021/12/27 06:22:57;;;;;;;;;;;8.50;58.50;;;;;;6181292;23;20237;-91
2021/12/27 06:25:23;;;;;;;;;;;8.40;58.60;;;;;;6183180;23;20330;-90
2021/12/27 06:27:49;;;;;;;;;;;8.50;58.70;;;;;;6186589;23;19991;-90
2021/12/27 06:30:15;;;;;;;;;;;8.50;58.80;;;;;;6185522;23;19995;-91
2021/12/27 06:32:40;;;;;;;;;;;8.50;59.00;;;;;;6186440;23;19995;-91
2021/12/27 06:35:07;;;;;;;;;;;8.50;59.10;;;;;;6181836;23;19955;-90
2021/12/27 06:37:32;;;;;;;;;;;8.50;59.20;;;;;;6186452;23;19916;-90
2021/12/27 06:39:58;;;;;;;;;;;8.50;59.20;;;;;;6182004;23;19912;-90
2021/12/27 06:42:23;;;;;;;;;;;8.50;59.30;;;;;;6183511;23;19912;-90
2021/12/27 06:44:49;;;;;;;;;;;8.50;59.40;;;;;;6186104;23;19912;-91
2021/12/27 06:47:14;;;;;;;;;;;8.40;59.40;;;;;;6158675;23;19955;-90
2021/12/27 06:49:41;;;;;;;;;;;8.50;59.40;;;;;;6185590;23;19991;-90
2021/12/27 06:52:06;;;;;;;;;;;8.40;59.40;;;;;;6158538;23;20345;-90
2021/12/27 06:54:32;;;;;;;;;;;8.40;59.50;;;;;;6158334;23;19924;-90
2021/12/27 06:56:59;;;;;;;;;;;8.30;59.60;;;;;;6181434;23;20089;-90
2021/12/27 06:59:26;;;;;;;;;;;8.30;59.80;;;;;;6183973;23;19920;-90
2021/12/27 07:01:51;;;;;;;;;;;8.30;59.90;;;;;;6182949;23;20248;-90
2021/12/27 07:04:17;;;;;;;;;;;8.30;59.90;;;;;;6186555;23;19963;-90
2021/12/27 07:06:42;;;;;;;;;;;8.40;60.00;;;;;;6159366;23;19908;-89
2021/12/27 07:09:08;;;;;;;;;;;8.40;59.90;;;;;;6185005;23;19912;-88
2021/12/27 07:11:33;;;;;;;;;;;8.40;60.00;;;;;;6184068;23;19962;-89
2021/12/27 07:13:59;;;;;;;;;;;8.40;60.00;;;;;;6185915;23;19971;-89
2021/12/27 07:16:26;;;;;;;;;;;8.40;60.00;;;;;;6185720;23;19979;-89
2021/12/27 07:18:52;;;;;;;;;;;8.40;60.00;;;;;;6184802;23;19912;-89
2021/12/27 07:21:17;;;;;;;;;;;8.40;60.10;;;;;;6183304;23;19986;-89
2021/12/27 07:23:44;;;;;;;;;;;8.40;60.00;;;;;;6184089;23;19912;-90
2021/12/27 07:26:10;;;;;;;;;;;8.40;60.10;;;;;;6185775;23;19950;-90
2021/12/27 07:28:35;;;;;;;;;;;8.40;60.20;;;;;;6183621;23;20002;-90
2021/12/27 07:31:01;;;;;;;;;;;8.40;60.30;;;;;;6185157;23;19919;-90
2021/12/27 07:33:26;;;;;;;;;;;8.40;60.30;;;;;;6161083;23;20210;-91
2021/12/27 07:35:52;;;;;;;;;;;8.50;60.30;;;;;;6186340;23;19947;-90
2021/12/27 07:38:17;;;;;;;;;;;8.50;60.40;;;;;;6185432;23;19913;-90
2021/12/27 07:40:43;;;;;;;;;;;8.50;60.30;;;;;;6184291;23;19915;-90
2021/12/27 07:43:08;;;;;;;;;;;8.40;60.30;;;;;;6183034;23;19912;-89
2021/12/27 07:45:34;;;;;;;;;;;8.40;60.40;;;;;;6185195;23;19919;-89
2021/12/27 07:47:59;;;;;;;;;;;8.40;60.50;;;;;;6184260;23;19939;-89
2021/12/27 07:50:25;;;;;;;;;;;8.50;60.60;;;;;;6185243;23;19913;-90
2021/12/27 07:52:51;;;;;;;;;;;8.50;60.70;;;;;;6185238;23;19960;-90
2021/12/27 07:55:17;;;;;;;;;;;8.50;60.60;;;;;;6184429;23;19919;-89
2021/12/27 07:57:43;;;;;;;;;;;8.60;60.60;;;;;;6181521;23;20352;-90
2021/12/27 08:00:09;;;;;;;;;;;8.60;60.60;;;;;;6180634;23;19956;-89
2021/12/27 08:02:34;;;;;;;;;;;8.60;60.60;;;;;;6183571;23;19932;-89
2021/12/27 08:05:00;;;;;;;;;;;8.70;60.60;;;;;;6183796;23;19916;-89
2021/12/27 08:07:25;;;;;;;;;;;8.80;60.70;;;;;;6185052;23;19920;-89
2021/12/27 08:09:51;;;;;;;;;;;8.80;60.70;;;;;;6184399;23;19912;-90
2021/12/27 08:12:16;;;;;;;;;;;8.80;60.60;;;;;;6185534;23;20632;-89
2021/12/27 08:14:42;;;;;;;;;;;8.80;60.40;;;;;;6184713;23;19962;-90
2021/12/27 08:17:07;;;;;;;;;;;8.80;60.50;;;;;;6180643;23;19965;-90
2021/12/27 08:19:33;;;;;;;;;;;8.80;60.50;;;;;;6180849;23;19920;-89
2021/12/27 08:21:59;;;;;;;;;;;8.90;60.60;;;;;;6180416;23;20019;-89
2021/12/27 08:24:24;;;;;;;;;;;8.90;60.60;;;;;;6183174;23;19913;-90
2021/12/27 08:26:50;;;;;;;;;;;8.90;60.70;;;;;;6183515;23;19912;-90
2021/12/27 08:29:15;;;;;;;;;;;9.00;60.60;;;;;;6185428;23;20037;-90
2021/12/27 08:31:41;;;;;;;;;;;9.00;60.60;;;;;;6182149;23;19919;-92
2021/12/27 08:34:06;;;;;;;;;;;9.00;60.70;;;;;;6182739;23;19912;-91
2021/12/27 08:36:32;;;;;;;;;;;9.10;60.60;;;;;;6182637;23;19912;-91
2021/12/27 08:38:57;;;;;;;;;;;9.10;60.70;;;;;;6184036;23;19912;-91
2021/12/27 08:41:27;;;;;;;;;;;9.20;60.70;;;;;;6182955;23;19949;-89
2021/12/27 08:43:57;;;;;;;;;;;9.30;60.80;;;;;;6184491;23;19913;-89
2021/12/27 08:46:22;;;;;;;;;;;9.30;60.70;;;;;;6186340;23;19908;-91
2021/12/27 08:48:48;;;;;;;;;;;9.30;60.60;;;;;;6185430;23;19959;-91
2021/12/27 08:51:13;;;;;;;;;;;9.40;60.50;;;;;;6181441;23;20333;-91
2021/12/27 08:53:40;;;;;;;;;;;9.40;60.40;;;;;;6179104;23;19913;-89
2021/12/27 08:56:05;;;;;;;;;;;9.50;60.30;;;;;;6182639;23;19912;-89
2021/12/27 08:58:31;;;;;;;;;;;9.50;60.10;;;;;;6182360;23;20237;-89
2021/12/27 09:00:57;;;;;;;;;;;9.50;60.10;;;;;;6182421;23;19975;-90
2021/12/27 09:03:22;;;;;;;;;;;9.60;60.20;;;;;;6183959;23;19922;-90
2021/12/27 09:05:48;;;;;;;;;;;9.60;60.30;;;;;;6184320;23;20248;-89
2021/12/27 09:08:13;;;;;;;;;;;9.70;60.40;;;;;;6184314;23;19912;-89
2021/12/27 09:10:39;;;;;;;;;;;9.70;60.20;;;;;;6184086;23;19913;-90
2021/12/27 09:13:04;;;;;;;;;;;9.70;60.20;;;;;;6186226;23;19954;-90
2021/12/27 09:15:30;;;;;;;;;;;9.70;60.20;;;;;;6183792;23;19952;-90
2021/12/27 09:17:56;;;;;;;;;;;9.70;60.30;;;;;;6185728;23;19955;-89
2021/12/27 09:20:24;;;;;;;;;;;9.70;60.60;;;;;;6186845;23;19916;-90
2021/12/27 09:22:49;;;;;;;;;;;9.70;60.80;;;;;;6161618;23;20312;-90
2021/12/27 09:25:15;;;;;;;;;;;9.80;60.70;;;;;;6186065;23;19962;-90
2021/12/27 09:27:40;;;;;;;;;;;9.80;60.70;;;;;;6186459;23;19927;-90
2021/12/27 09:30:06;;;;;;;;;;;9.80;60.50;;;;;;6185092;23;19967;-89
2021/12/27 09:32:32;;;;;;;;;;;9.80;60.40;;;;;;6184931;23;19991;-90
2021/12/27 09:34:58;;;;;;;;;;;9.90;60.30;;;;;;6185728;23;19944;-90
2021/12/27 09:37:23;;;;;;;;;;;9.90;60.30;;;;;;6161829;23;19964;-90
2021/12/27 09:39:53;;;;;;;;;;;9.90;60.40;;;;;;6162197;23;19995;-91
2021/12/27 09:42:22;;;;;;;;;;;9.90;60.40;;;;;;6163229;23;19935;-88
2021/12/27 09:44:48;;;;;;;;;;;10.00;60.40;;;;;;6186403;23;19908;-89
2021/12/27 09:47:14;;;;;;;;;;;10.00;60.60;;;;;;6184794;23;19971;-90
2021/12/27 09:49:40;;;;;;;;;;;10.10;60.60;;;;;;6184626;23;19913;-90
2021/12/27 09:52:06;;;;;;;;;;;10.20;60.30;;;;;;6184435;23;19919;-90
2021/12/27 09:54:31;;;;;;;;;;;10.20;60.40;;;;;;6186198;23;19983;-90
2021/12/27 09:56:57;;;;;;;;;;;10.20;60.20;;;;;;6185956;23;20237;-90
2021/12/27 09:59:23;;;;;;;;;;;10.30;60.20;;;;;;6161054;23;19935;-90
2021/12/27 10:01:50;;;;;;;;;;;10.30;60.30;;;;;;6189034;23;19915;-90
2021/12/27 10:04:15;;;;;;;;;;;10.30;60.30;;;;;;6184501;23;20325;-89
2021/12/27 10:06:41;;;;;;;;;;;10.40;60.40;;;;;;6183086;23;19912;-89
2021/12/27 10:09:06;;;;;;;;;;;10.50;60.40;;;;;;6185726;23;20237;-89
2021/12/27 10:11:33;;;;;;;;;;;10.50;60.10;;;;;;6185431;23;19947;-89
2021/12/27 10:14:04;;;;;;;;;;;10.60;60.10;;;;;;6159824;23;19905;-90
2021/12/27 10:16:30;;;;;;;;;;;10.60;60.10;;;;;;6186037;23;19908;-91
2021/12/27 10:18:56;;;;;;;;;;;10.70;60.10;;;;;;6185673;23;19973;-91
2021/12/27 10:21:22;;;;;;;;;;;10.80;60.00;;;;;;6187381;23;19966;-91
2021/12/27 10:23:47;;;;;;;;;;;10.80;60.00;;;;;;6179174;23;19916;-90
2021/12/27 10:26:17;;;;;;;;;;;11.00;60.40;;;;;;6182931;23;19916;-91
2021/12/27 10:28:42;;;;;;;;;;;11.00;60.40;;;;;;6184395;23;19996;-91
2021/12/27 10:31:08;;;;;;;;;;;11.10;60.00;;;;;;6182493;23;20031;-89
2021/12/27 10:33:33;;;;;;;;;;;11.20;60.10;;;;;;6160464;23;20000;-90
2021/12/27 10:35:59;;;;;;;;;;;11.20;60.10;;;;;;6187832;23;19959;-90
2021/12/27 10:38:26;;;;;;;;;;;11.30;59.90;;;;;;6186602;23;19972;-90
2021/12/27 10:40:54;;;;;;;;;;;11.40;59.70;;;;;;6186220;23;19912;-90
2021/12/27 10:43:32;;;;;;;;;;;11.40;59.80;;;;;;6183595;23;19978;-90
2021/12/27 10:46:02;;;;;;;;;;;11.50;59.50;;;;;;6182418;23;19912;-90
2021/12/27 10:48:34;;;;;;;;;;;11.50;59.20;;;;;;6182878;23;20453;-91
2021/12/27 10:51:01;;;;;;;;;;;11.50;59.10;;;;;;6183767;23;19915;-90
2021/12/27 10:53:27;;;;;;;;;;;11.50;59.00;;;;;;6185848;23;20211;-90
2021/12/27 10:55:53;;;;;;;;;;;11.50;58.90;;;;;;6187081;23;20108;-90
2021/12/27 10:58:20;;;;;;;;;;;11.50;59.30;;;;;;6185302;23;19939;-90
2021/12/27 11:00:47;;;;;;;;;;;11.60;59.10;;;;;;6184144;23;19908;-90
2021/12/27 11:03:23;;;;;;;;;;;11.60;58.90;;;;;;6182581;23;19999;-89
2021/12/27 11:05:48;;;;;;;;;;;11.60;58.80;;;;;;6181795;23;19940;-89
2021/12/27 11:08:14;;;;;;;;;;;11.70;59.00;;;;;;6183571;23;19908;-92
2021/12/27 11:10:40;;;;;;;;;;;11.70;58.80;;;;;;6186325;23;19915;-91
2021/12/27 11:13:05;;;;;;;;;;;11.70;58.40;;;;;;6186534;23;19904;-89
2021/12/27 11:15:33;;;;;;;;;;;11.70;58.60;;;;;;6160198;23;19908;-90
2021/12/27 11:17:59;;;;;;;;;;;11.70;58.40;;;;;;6185603;23;19912;-90
2021/12/27 11:20:25;;;;;;;;;;;11.80;58.00;;;;;;6182146;23;19923;-90
2021/12/27 11:22:52;;;;;;;;;;;11.80;58.20;;;;;;6182556;23;19919;-89
2021/12/27 11:25:22;;;;;;;;;;;11.90;58.70;;;;;;6156132;23;19912;-89
2021/12/27 11:27:48;;;;;;;;;;;12.00;59.20;;;;;;6182517;23;19912;-90
2021/12/27 11:30:16;;;;;;;;;;;12.10;58.80;;;;;;6185399;23;19951;-90
2021/12/27 11:33:00;;;;;;;;;;;12.20;59.10;;;;;;6185140;23;19913;-89
2021/12/27 11:35:26;;;;;;;;;;;12.40;59.20;;;;;;6184767;23;19912;-89
2021/12/27 11:37:52;;;;;;;;;;;12.60;58.30;;;;;;6183945;23;20281;-89
2021/12/27 11:40:17;;;;;;;;;;;12.70;58.40;;;;;;6157433;23;19920;-91
2021/12/27 11:42:53;;;;;;;;;;;12.70;58.40;;;;;;6184067;23;19916;-89
2021/12/27 11:45:38;;;;;;;;;;;12.80;57.60;;;;;;6183869;23;19909;-89
2021/12/27 11:48:07;;;;;;;;;;;12.80;57.30;;;;;;6159311;23;20267;-90
2021/12/27 11:50:33;;;;;;;;;;;12.70;57.50;;;;;;6184579;23;19916;-90
2021/12/27 11:53:05;;;;;;;;;;;12.70;57.40;;;;;;6184909;23;20031;-91
2021/12/27 11:55:38;;;;;;;;;;;12.80;57.60;;;;;;6182515;23;19919;-91
2021/12/27 11:58:03;;;;;;;;;;;12.80;57.30;;;;;;6184845;23;19943;-90
2021/12/27 12:00:32;;;;;;;;;;;12.80;56.90;;;;;;6186219;23;19978;-91
2021/12/27 12:03:01;;;;;;;;;;;12.80;56.90;;;;;;6184710;23;19908;-91
2021/12/27 12:05:36;;;;;;;;;;;12.70;56.50;;;;;;6187428;23;19931;-91
2021/12/27 12:08:02;;;;;;;;;;;12.80;56.50;;;;;;6188937;23;19908;-91
2021/12/27 12:10:28;;;;;;;;;;;12.70;56.50;;;;;;6185694;23;20348;-91
2021/12/27 12:13:12;;;;;;;;;;;12.70;56.40;;;;;;6185293;23;19924;-90
2021/12/27 12:15:53;;;;;;;;;;;12.70;56.10;;;;;;6185184;23;19912;-90
2021/12/27 12:18:19;;;;;;;;;;;12.70;56.40;;;;;;6183302;23;19979;-90
2021/12/27 12:20:44;;;;;;;;;;;12.70;56.70;;;;;;6185824;23;20325;-91
2021/12/27 12:23:11;;;;;;;;;;;12.70;56.80;;;;;;6185390;23;19912;-91
2021/12/27 12:25:37;;;;;;;;;;;12.70;56.90;;;;;;6187258;23;19984;-92
2021/12/27 12:28:06;;;;;;;;;;;12.80;57.10;;;;;;6189727;23;20282;-92
2021/12/27 12:30:37;;;;;;;;;;;12.90;57.00;;;;;;6186167;23;20290;-89
2021/12/27 12:33:04;;;;;;;;;;;12.90;56.90;;;;;;6182026;23;19994;-89
2021/12/27 12:35:40;;;;;;;;;;;12.90;57.00;;;;;;6183346;23;19975;-92
2021/12/27 12:38:26;;;;;;;;;;;12.90;57.00;;;;;;6186433;23;19912;-89
2021/12/27 12:41:10;;;;;;;;;;;12.90;57.10;;;;;;6186086;23;19913;-90
2021/12/27 12:43:41;;;;;;;;;;;12.80;56.50;;;;;;6161511;23;19909;-89
2021/12/27 12:46:15;;;;;;;;;;;12.70;56.80;;;;;;6188534;23;20331;-90
2021/12/27 12:48:41;;;;;;;;;;;12.70;57.20;;;;;;6190072;23;19920;-89
2021/12/27 12:51:06;;;;;;;;;;;12.80;57.30;;;;;;6187600;23;20380;-90
2021/12/27 12:53:33;;;;;;;;;;;12.80;57.10;;;;;;6184786;23;20321;-90
2021/12/27 12:56:03;;;;;;;;;;;12.70;56.80;;;;;;6186017;23;19979;-91
2021/12/27 12:58:36;;;;;;;;;;;12.70;56.60;;;;;;6186600;23;19912;-90
2021/12/27 13:01:03;;;;;;;;;;;12.60;56.40;;;;;;6187809;23;19909;-90
2021/12/27 13:03:29;;;;;;;;;;;12.50;56.20;;;;;;6189239;23;19979;-90
2021/12/27 13:05:59;;;;;;;;;;;12.30;56.10;;;;;;6187650;23;19935;-90
2021/12/27 13:08:24;;;;;;;;;;;12.20;56.20;;;;;;6162826;23;19963;-91
2021/12/27 13:10:54;;;;;;;;;;;12.00;56.80;;;;;;6185469;23;19987;-91
2021/12/27 13:13:19;;;;;;;;;;;11.90;56.80;;;;;;6186650;23;20317;-90
2021/12/27 13:15:55;;;;;;;;;;;11.80;56.80;;;;;;6186757;23;19991;-90
2021/12/27 13:18:22;;;;;;;;;;;11.70;57.30;;;;;;6159573;23;19909;-90
2021/12/27 13:20:52;;;;;;;;;;;11.50;57.60;;;;;;6188412;23;19912;-90
2021/12/27 13:23:19;;;;;;;;;;;11.50;57.80;;;;;;6188122;23;19908;-90
2021/12/27 13:25:46;;;;;;;;;;;11.40;58.00;;;;;;6186598;23;19912;-90
2021/12/27 13:28:14;;;;;;;;;;;11.30;58.00;;;;;;6185842;23;19916;-89
2021/12/27 13:30:51;;;;;;;;;;;11.30;58.20;;;;;;6159017;23;19912;-89
2021/12/27 13:33:20;;;;;;;;;;;11.20;58.20;;;;;;6184355;23;19912;-90
2021/12/27 13:35:47;;;;;;;;;;;11.10;58.40;;;;;;6185352;23;20265;-90
2021/12/27 13:38:14;;;;;;;;;;;11.10;58.80;;;;;;6186237;23;19991;-90
2021/12/27 13:40:44;;;;;;;;;;;11.10;59.00;;;;;;6187317;23;20577;-90
2021/12/27 13:43:10;;;;;;;;;;;11.20;59.20;;;;;;6186356;23;19905;-89
2021/12/27 13:45:41;;;;;;;;;;;11.20;59.10;;;;;;6187396;23;19915;-89
2021/12/27 13:48:07;;;;;;;;;;;11.20;59.30;;;;;;6159274;23;19955;-90
2021/12/27 13:50:35;;;;;;;;;;;11.20;59.30;;;;;;6185541;23;19922;-90
2021/12/27 13:53:08;;;;;;;;;;;11.30;59.30;;;;;;6159819;23;19919;-90
2021/12/27 13:55:34;;;;;;;;;;;11.30;59.30;;;;;;6188081;23;19919;-91
2021/12/27 13:58:22;;;;;;;;;;;11.30;59.40;;;;;;6187814;23;19912;-90
2021/12/27 14:00:52;;;;;;;;;;;11.30;59.20;;;;;;6188843;23;19912;-90
2021/12/27 14:03:24;;;;;;;;;;;11.30;59.20;;;;;;6184886;23;19935;-90
2021/12/27 14:05:54;;;;;;;;;;;11.40;59.30;;;;;;6159000;23;19959;-90
2021/12/27 14:08:19;;;;;;;;;;;11.40;59.10;;;;;;6183956;23;19912;-90
2021/12/27 14:10:58;;;;;;;;;;;11.40;59.00;;;;;;6184011;23;20470;-91
2021/12/27 14:13:23;;;;;;;;;;;11.50;59.10;;;;;;6183685;23;19919;-91
2021/12/27 14:15:49;;;;;;;;;;;11.50;59.00;;;;;;6160769;23;19928;-91
2021/12/27 14:18:15;;;;;;;;;;;11.50;59.30;;;;;;6188364;23;19913;-91
2021/12/27 14:20:41;;;;;;;;;;;11.50;59.30;;;;;;6185941;23;20517;-90
2021/12/27 14:23:11;;;;;;;;;;;11.50;59.40;;;;;;6183473;23;19908;-91
2021/12/27 14:25:36;;;;;;;;;;;11.60;59.30;;;;;;6184848;23;19913;-90
2021/12/27 14:28:02;;;;;;;;;;;11.70;59.30;;;;;;6184442;23;19916;-87